createdAt,value
2023-05-04T00:00:41.218Z,99.90
2023-05-04T00:03:09.541Z,99.90
2023-05-04T00:05:40.536Z,99.90
2023-05-04T00:08:10.109Z,99.90
2023-05-04T00:10:38.268Z,99.90
2023-05-04T00:13:06.900Z,99.90
2023-05-04T00:15:35.181Z,99.90
2023-05-04T00:18:03.430Z,99.90
2023-05-04T00:20:31.655Z,99.90
2023-05-04T00:22:59.833Z,99.90
2023-05-04T00:25:29.394Z,99.90
2023-05-04T00:27:57.902Z,99.90
2023-05-04T00:30:26.218Z,99.90
2023-05-04T00:32:54.442Z,99.90
2023-05-04T00:35:22.678Z,99.90
2023-05-04T00:37:51.177Z,99.90
2023-05-04T00:40:19.550Z,99.90
2023-05-04T00:42:49.398Z,99.90
2023-05-04T00:45:17.765Z,99.90
2023-05-04T00:47:46.217Z,99.90
2023-05-04T00:50:14.569Z,99.90
2023-05-04T00:52:44.898Z,99.90
2023-05-04T00:55:14.558Z,99.90
2023-05-04T00:57:43.558Z,99.90
2023-05-04T01:00:14.265Z,99.90
2023-05-04T01:02:42.866Z,99.90
2023-05-04T01:05:12.914Z,99.90
2023-05-04T01:07:48.333Z,99.90
2023-05-04T01:10:22.116Z,99.90
2023-05-04T01:12:57.424Z,99.90
2023-05-04T01:15:28.080Z,99.90
2023-05-04T01:17:56.364Z,99.90
2023-05-04T01:20:24.571Z,99.90
2023-05-04T01:22:54.367Z,99.90
2023-05-04T01:25:22.729Z,99.90
2023-05-04T01:27:57.640Z,99.90
2023-05-04T01:30:30.864Z,99.90
2023-05-04T01:32:59.778Z,99.90
2023-05-04T01:35:28.312Z,99.90
2023-05-04T01:37:58.032Z,99.90
2023-05-04T01:40:26.361Z,99.90
2023-05-04T01:42:54.888Z,99.90
2023-05-04T01:45:23.262Z,99.90
2023-05-04T01:47:51.560Z,99.90
2023-05-04T01:50:19.759Z,99.90
2023-05-04T01:52:47.972Z,99.90
2023-05-04T01:55:17.730Z,99.90
2023-05-04T01:57:46.364Z,99.90
2023-05-04T02:00:16.608Z,99.90
2023-05-04T02:02:44.975Z,99.90
2023-05-04T02:05:13.370Z,99.90
2023-05-04T02:07:41.619Z,99.90
2023-05-04T02:10:10.867Z,99.90
2023-05-04T02:12:41.456Z,99.90
2023-05-04T02:15:10.882Z,99.90
2023-05-04T02:17:39.154Z,99.90
2023-05-04T02:20:09.620Z,99.90
2023-05-04T02:22:37.950Z,99.90
2023-05-04T02:25:07.680Z,99.90
2023-05-04T02:27:35.992Z,99.90
2023-05-04T02:30:06.845Z,99.90
2023-05-04T02:32:35.397Z,99.90
2023-05-04T02:35:03.640Z,99.90
2023-05-04T02:37:31.832Z,99.90
2023-05-04T02:40:00.198Z,99.90
2023-05-04T02:42:28.743Z,99.90
2023-05-04T02:44:56.948Z,99.90
2023-05-04T02:47:26.818Z,99.90
2023-05-04T02:49:55.067Z,99.90
2023-05-04T02:52:23.300Z,99.90
2023-05-04T02:54:53.106Z,99.90
2023-05-04T02:57:21.539Z,99.90
2023-05-04T02:59:49.720Z,99.90
2023-05-04T03:02:18.014Z,99.90
2023-05-04T03:04:47.714Z,99.90
2023-05-04T03:07:15.908Z,99.90
2023-05-04T03:09:46.775Z,99.90
2023-05-04T03:12:15.805Z,99.90
2023-05-04T03:14:44.032Z,99.90
2023-05-04T03:17:12.254Z,99.90
2023-05-04T03:19:40.462Z,99.90
2023-05-04T03:22:10.031Z,99.90
2023-05-04T03:24:38.235Z,99.90
2023-05-04T03:27:06.406Z,99.90
2023-05-04T03:29:34.610Z,99.90
2023-05-04T03:32:02.846Z,99.90
2023-05-04T03:34:31.548Z,99.90
2023-05-04T03:36:59.683Z,99.90
2023-05-04T03:39:29.258Z,99.90
2023-05-04T03:41:57.560Z,99.90
2023-05-04T03:44:25.881Z,99.90
2023-05-04T03:46:54.091Z,99.90
2023-05-04T03:49:22.350Z,99.90
2023-05-04T03:51:50.579Z,99.90
2023-05-04T03:54:18.802Z,99.90
2023-05-04T03:56:48.462Z,99.90
2023-05-04T03:59:16.638Z,99.90
2023-05-04T04:01:44.829Z,99.90
2023-05-04T04:04:13.390Z,99.90
2023-05-04T04:06:43.437Z,99.90
2023-05-04T04:09:11.935Z,99.90
2023-05-04T04:11:40.227Z,99.90
2023-05-04T04:14:10.002Z,99.90
2023-05-04T04:16:38.458Z,99.90
2023-05-04T04:19:07.486Z,99.90
2023-05-04T04:21:35.861Z,99.90
2023-05-04T04:24:04.335Z,99.90
2023-05-04T04:26:32.658Z,99.90
2023-05-04T04:29:01.034Z,99.90
2023-05-04T04:31:31.189Z,99.90
2023-05-04T04:33:59.471Z,99.90
2023-05-04T04:36:27.609Z,99.90
2023-05-04T04:38:55.843Z,99.90
2023-05-04T04:41:25.039Z,99.90
2023-05-04T04:43:53.293Z,99.90
2023-05-04T04:46:21.655Z,99.90
2023-05-04T04:48:53.522Z,99.90
2023-05-04T04:51:21.936Z,99.90
2023-05-04T04:53:51.358Z,99.90
2023-05-04T04:56:19.597Z,99.90
2023-05-04T04:58:48.517Z,99.90
2023-05-04T05:01:18.149Z,99.90
2023-05-04T05:03:46.475Z,99.90
2023-05-04T05:06:16.197Z,99.90
2023-05-04T05:08:44.803Z,99.90
2023-05-04T05:11:12.991Z,99.90
2023-05-04T05:13:41.194Z,99.90
2023-05-04T05:16:09.472Z,99.90
2023-05-04T05:18:37.690Z,99.90
2023-05-04T05:21:07.383Z,99.90
2023-05-04T05:23:36.967Z,99.90
2023-05-04T05:26:05.168Z,99.90
2023-05-04T05:28:33.462Z,99.90
2023-05-04T05:31:01.667Z,99.90
2023-05-04T05:33:30.028Z,99.90
2023-05-04T05:35:58.302Z,99.90
2023-05-04T05:38:26.841Z,99.90
2023-05-04T05:40:57.026Z,99.90
2023-05-04T05:43:25.221Z,99.90
2023-05-04T05:45:53.652Z,99.90
2023-05-04T05:48:21.862Z,99.90
2023-05-04T05:50:50.292Z,99.90
2023-05-04T05:53:18.461Z,99.90
2023-05-04T05:55:48.115Z,99.90
2023-05-04T05:58:17.922Z,99.90
2023-05-04T06:00:46.311Z,99.90
2023-05-04T06:03:14.560Z,99.90
2023-05-04T06:05:42.825Z,99.90
2023-05-04T06:08:10.986Z,99.90
2023-05-04T06:10:39.635Z,99.90
2023-05-04T06:13:07.854Z,99.90
2023-05-04T06:15:37.694Z,99.90
2023-05-04T06:18:06.007Z,99.90
2023-05-04T06:20:34.227Z,99.90
2023-05-04T06:23:02.418Z,99.90
2023-05-04T06:25:30.586Z,99.90
2023-05-04T06:27:58.770Z,99.90
2023-05-04T06:30:26.952Z,99.90
2023-05-04T06:32:56.549Z,99.90
2023-05-04T06:35:24.810Z,99.90
2023-05-04T06:37:53.017Z,99.90
2023-05-04T06:40:21.306Z,99.90
2023-05-04T06:42:49.746Z,99.90
2023-05-04T06:45:18.241Z,99.90
2023-05-04T06:47:46.790Z,99.90
2023-05-04T06:50:17.279Z,99.90
2023-05-04T06:52:46.527Z,99.90
2023-05-04T06:55:15.073Z,99.90
2023-05-04T06:57:43.312Z,99.90
2023-05-04T07:00:12.653Z,99.90
2023-05-04T07:02:41.110Z,99.90
2023-05-04T07:05:10.121Z,99.90
2023-05-04T07:07:40.004Z,99.90
2023-05-04T07:10:08.929Z,99.90
2023-05-04T07:12:37.691Z,99.30
2023-05-04T07:15:07.275Z,98.50
2023-05-04T07:17:35.749Z,97.00
2023-05-04T07:20:04.894Z,95.90
2023-05-04T07:22:33.438Z,93.20
2023-05-04T07:25:03.450Z,90.30
2023-05-04T07:27:31.842Z,85.20
2023-05-04T07:30:00.003Z,88.60
2023-05-04T07:32:28.237Z,84.60
2023-05-04T07:34:56.473Z,83.60
2023-05-04T07:37:24.700Z,84.20
2023-05-04T07:39:52.919Z,86.10
2023-05-04T07:42:23.802Z,85.00
2023-05-04T07:44:53.351Z,83.20
2023-05-04T07:47:22.459Z,80.50
2023-05-04T07:49:51.153Z,81.40
2023-05-04T07:52:19.346Z,82.70
2023-05-04T07:54:47.989Z,81.70
2023-05-04T07:57:16.339Z,80.40
2023-05-04T07:59:45.996Z,80.60
2023-05-04T08:02:14.200Z,78.00
2023-05-04T08:04:42.420Z,77.10
2023-05-04T08:07:10.568Z,73.90
2023-05-04T08:09:38.820Z,74.10
2023-05-04T08:12:07.742Z,74.20
2023-05-04T08:14:37.547Z,74.30
2023-05-04T08:17:07.849Z,75.20
2023-05-04T08:19:36.124Z,72.20
2023-05-04T08:22:04.328Z,72.40
2023-05-04T08:24:32.605Z,72.00
2023-05-04T08:27:07.993Z,72.60
2023-05-04T08:29:37.417Z,72.50
2023-05-04T08:32:08.389Z,72.80
2023-05-04T08:34:37.494Z,72.20
2023-05-04T08:37:05.953Z,68.10
2023-05-04T08:39:34.140Z,67.30
2023-05-04T08:42:03.135Z,68.90
2023-05-04T08:44:31.630Z,65.50
2023-05-04T08:46:59.874Z,65.70
2023-05-04T08:49:30.600Z,66.60
2023-05-04T08:52:00.310Z,64.50
2023-05-04T08:54:29.092Z,63.80
2023-05-04T08:56:58.840Z,64.50
2023-05-04T08:59:29.583Z,62.60
2023-05-04T09:02:00.389Z,63.70
2023-05-04T09:04:32.022Z,64.40
2023-05-04T09:07:00.232Z,63.20
2023-05-04T09:09:31.668Z,60.80
2023-05-04T09:12:00.298Z,60.70
2023-05-04T09:14:34.678Z,62.40
2023-05-04T09:17:03.383Z,60.30
2023-05-04T09:19:34.897Z,59.60
2023-05-04T09:22:03.295Z,58.80
2023-05-04T09:24:31.933Z,60.30
2023-05-04T09:27:10.989Z,59.10
2023-05-04T09:29:40.618Z,58.40
2023-05-04T09:32:13.499Z,58.90
2023-05-04T09:34:53.032Z,60.80
2023-05-04T09:37:22.205Z,61.70
2023-05-04T09:39:55.557Z,60.30
2023-05-04T09:42:24.756Z,59.70
2023-05-04T09:45:03.763Z,60.70
2023-05-04T09:47:40.041Z,60.20
2023-05-04T09:50:20.083Z,60.50
2023-05-04T09:52:49.436Z,59.80
2023-05-04T09:55:18.836Z,60.70
2023-05-04T09:57:48.601Z,60.00
2023-05-04T10:00:18.646Z,62.10
2023-05-04T10:02:48.194Z,60.60
2023-05-04T10:05:21.747Z,61.30
2023-05-04T10:07:51.001Z,59.30
2023-05-04T10:10:19.204Z,58.80
2023-05-04T10:12:47.611Z,59.60
2023-05-04T10:15:17.143Z,59.50
2023-05-04T10:18:10.241Z,58.70
2023-05-04T10:21:06.823Z,56.80
2023-05-04T10:23:57.237Z,59.00
2023-05-04T10:26:47.281Z,58.30
2023-05-04T10:29:23.875Z,59.60
2023-05-04T10:31:53.469Z,57.60
2023-05-04T10:34:26.920Z,58.90
2023-05-04T10:36:56.845Z,58.70
2023-05-04T10:39:28.189Z,58.30
2023-05-04T10:42:00.593Z,56.90
2023-05-04T10:44:30.148Z,58.30
2023-05-04T10:46:59.982Z,58.00
2023-05-04T10:49:28.569Z,58.30
2023-05-04T10:52:16.252Z,58.20
2023-05-04T10:54:44.954Z,58.90
2023-05-04T10:57:17.099Z,58.80
2023-05-04T10:59:56.269Z,59.60
2023-05-04T11:02:25.133Z,59.90
2023-05-04T11:05:04.425Z,59.60
2023-05-04T11:07:38.792Z,58.80
2023-05-04T11:10:09.787Z,59.00
2023-05-04T11:12:39.776Z,59.70
2023-05-04T11:15:10.289Z,58.20
2023-05-04T11:17:47.403Z,57.30
2023-05-04T11:20:23.158Z,57.10
2023-05-04T11:22:53.923Z,59.10
2023-05-04T11:25:29.017Z,58.30
2023-05-04T11:27:58.364Z,60.10
2023-05-04T11:30:33.673Z,57.80
2023-05-04T11:33:02.811Z,58.40
2023-05-04T11:35:31.024Z,58.70
2023-05-04T11:38:01.008Z,59.10
2023-05-04T11:40:29.234Z,59.50
2023-05-04T11:42:59.191Z,60.10
2023-05-04T11:45:29.873Z,60.30
2023-05-04T11:47:58.652Z,60.60
2023-05-04T11:50:28.183Z,58.30
2023-05-04T11:53:09.040Z,58.90
2023-05-04T11:55:38.394Z,60.30
2023-05-04T11:58:07.495Z,59.60
2023-05-04T12:00:38.949Z,57.50
2023-05-04T12:03:08.408Z,57.50
2023-05-04T12:05:38.068Z,58.80
2023-05-04T12:08:12.442Z,60.00
2023-05-04T12:10:41.378Z,60.90
2023-05-04T12:13:18.109Z,59.20
2023-05-04T12:15:46.656Z,59.80
2023-05-04T12:18:29.677Z,59.60
2023-05-04T12:20:58.035Z,58.90
2023-05-04T12:23:27.815Z,59.50
2023-05-04T12:25:58.530Z,58.10
2023-05-04T12:28:27.812Z,58.20
2023-05-04T12:30:56.192Z,59.20
2023-05-04T12:33:24.813Z,57.50
2023-05-04T12:35:53.052Z,57.00
2023-05-04T12:38:21.657Z,59.20
2023-05-04T12:40:51.862Z,57.30
2023-05-04T12:43:23.026Z,56.00
2023-05-04T12:45:51.826Z,56.60
2023-05-04T12:48:21.643Z,55.00
2023-05-04T12:50:50.984Z,55.00
2023-05-04T12:53:21.871Z,55.00
2023-05-04T12:55:51.666Z,55.40
2023-05-04T12:58:19.929Z,54.40
2023-05-04T13:00:49.484Z,55.10
2023-05-04T13:03:19.957Z,54.30
2023-05-04T13:05:49.729Z,54.50
2023-05-04T13:08:18.384Z,53.30
2023-05-04T13:10:47.349Z,54.90
2023-05-04T13:13:17.964Z,53.90
2023-05-04T13:15:47.005Z,54.60
2023-05-04T13:18:15.243Z,53.80
2023-05-04T13:20:43.508Z,54.90
2023-05-04T13:23:11.790Z,54.00
2023-05-04T13:25:40.185Z,53.00
2023-05-04T13:28:08.360Z,52.50
2023-05-04T13:30:37.933Z,54.60
2023-05-04T13:33:13.661Z,53.80
2023-05-04T13:35:49.614Z,53.20
2023-05-04T13:38:17.913Z,55.40
2023-05-04T13:40:46.125Z,56.30
2023-05-04T13:43:14.369Z,54.40
2023-05-04T13:45:44.083Z,54.50
2023-05-04T13:48:12.640Z,54.50
2023-05-04T13:50:40.871Z,55.00
2023-05-04T13:53:11.023Z,54.80
2023-05-04T13:55:39.540Z,56.40
2023-05-04T13:58:07.823Z,56.90
2023-05-04T14:00:36.136Z,56.40
2023-05-04T14:03:06.322Z,57.40
2023-05-04T14:05:35.653Z,58.90
2023-05-04T14:08:04.293Z,60.40
2023-05-04T14:10:33.422Z,60.00
2023-05-04T14:13:02.518Z,59.30
2023-05-04T14:15:32.097Z,59.90
2023-05-04T14:18:00.669Z,60.50
2023-05-04T14:20:30.570Z,63.10
2023-05-04T14:22:59.004Z,62.60
2023-05-04T14:25:27.360Z,62.80
2023-05-04T14:27:57.146Z,63.80
2023-05-04T14:30:26.559Z,65.30
2023-05-04T14:32:56.078Z,67.20
2023-05-04T14:35:24.699Z,65.40
2023-05-04T14:37:54.296Z,67.40
2023-05-04T14:40:22.647Z,68.50
2023-05-04T14:42:50.961Z,66.80
2023-05-04T14:45:20.333Z,66.20
2023-05-04T14:47:48.583Z,67.10
2023-05-04T14:50:16.866Z,67.10
2023-05-04T14:52:45.136Z,65.00
2023-05-04T14:55:15.038Z,66.80
2023-05-04T14:57:44.083Z,67.80
2023-05-04T15:00:13.499Z,67.10
2023-05-04T15:02:42.135Z,68.10
2023-05-04T15:05:12.725Z,67.30
2023-05-04T15:07:41.232Z,68.80
2023-05-04T15:10:11.322Z,67.00
2023-05-04T15:12:41.523Z,65.70
2023-05-04T15:15:10.788Z,65.20
2023-05-04T15:17:39.246Z,65.80
2023-05-04T15:20:09.974Z,65.50
2023-05-04T15:22:38.586Z,64.40
2023-05-04T15:25:07.607Z,66.20
2023-05-04T15:27:35.844Z,63.90
2023-05-04T15:30:07.634Z,65.50
2023-05-04T15:32:36.083Z,63.80
2023-05-04T15:35:06.325Z,64.60
2023-05-04T15:37:35.377Z,64.40
2023-05-04T15:40:04.741Z,65.20
2023-05-04T15:42:33.599Z,65.00
2023-05-04T15:45:02.124Z,65.60
2023-05-04T15:47:32.126Z,66.40
2023-05-04T15:50:00.502Z,67.70
2023-05-04T15:52:28.711Z,69.90
2023-05-04T15:54:57.446Z,70.10
2023-05-04T15:57:26.341Z,69.40
2023-05-04T15:59:55.766Z,70.30
2023-05-04T16:02:24.330Z,72.20
2023-05-04T16:04:54.777Z,72.30
2023-05-04T16:07:23.165Z,72.30
2023-05-04T16:09:51.738Z,73.50
2023-05-04T16:12:20.663Z,74.40
2023-05-04T16:14:49.306Z,74.60
2023-05-04T16:17:17.628Z,73.90
2023-05-04T16:19:45.897Z,73.90
2023-05-04T16:22:15.493Z,75.20
2023-05-04T16:24:43.710Z,75.30
2023-05-04T16:27:11.911Z,75.90
2023-05-04T16:29:40.195Z,76.70
2023-05-04T16:32:08.522Z,77.20
2023-05-04T16:34:37.082Z,77.80
2023-05-04T16:37:05.448Z,78.30
2023-05-04T16:39:36.207Z,79.40
2023-05-04T16:42:04.895Z,78.50
2023-05-04T16:44:33.683Z,77.70
2023-05-04T16:47:02.156Z,77.10
2023-05-04T16:49:31.052Z,76.00
2023-05-04T16:51:59.223Z,75.30
2023-05-04T16:54:27.555Z,74.90
2023-05-04T16:56:57.289Z,75.70
2023-05-04T16:59:25.590Z,75.80
2023-05-04T17:01:53.781Z,76.80
2023-05-04T17:04:22.031Z,77.70
2023-05-04T17:06:50.608Z,78.20
2023-05-04T17:09:18.844Z,78.70
2023-05-04T17:11:47.482Z,78.60
2023-05-04T17:14:17.224Z,79.70
2023-05-04T17:16:45.500Z,79.80
2023-05-04T17:19:13.921Z,80.10
2023-05-04T17:21:42.244Z,79.90
2023-05-04T17:24:10.529Z,80.30
2023-05-04T17:26:38.795Z,80.60
2023-05-04T17:29:08.654Z,80.80
2023-05-04T17:31:38.363Z,81.50
2023-05-04T17:34:06.614Z,82.20
2023-05-04T17:36:34.976Z,82.00
2023-05-04T17:39:04.101Z,82.00
2023-05-04T17:41:32.489Z,82.20
2023-05-04T17:44:00.948Z,81.80
2023-05-04T17:46:30.206Z,81.30
2023-05-04T17:48:59.833Z,81.30
2023-05-04T17:51:28.044Z,82.40
2023-05-04T17:53:56.285Z,82.60
2023-05-04T17:56:24.493Z,82.80
2023-05-04T17:58:52.762Z,83.40
2023-05-04T18:01:21.475Z,84.00
2023-05-04T18:03:50.502Z,84.30
2023-05-04T18:06:20.379Z,84.80
2023-05-04T18:08:48.698Z,85.90
2023-05-04T18:11:17.030Z,85.90
2023-05-04T18:13:45.346Z,86.00
2023-05-04T18:16:13.696Z,85.90
2023-05-04T18:18:41.950Z,86.10
2023-05-04T18:21:10.196Z,86.00
2023-05-04T18:23:40.759Z,86.70
2023-05-04T18:26:09.448Z,87.10
2023-05-04T18:28:37.681Z,87.40
2023-05-04T18:31:06.073Z,87.60
2023-05-04T18:33:35.465Z,87.80
2023-05-04T18:36:05.592Z,88.30
2023-05-04T18:38:34.968Z,88.30
2023-05-04T18:41:04.736Z,90.10
2023-05-04T18:43:33.025Z,90.60
2023-05-04T18:46:08.195Z,90.70
2023-05-04T18:48:36.426Z,92.20
2023-05-04T18:51:05.199Z,93.60
2023-05-04T18:53:33.442Z,94.30
2023-05-04T18:56:04.552Z,94.90
2023-05-04T18:58:33.140Z,95.80
2023-05-04T19:01:02.007Z,96.30
2023-05-04T19:03:30.543Z,96.90
2023-05-04T19:05:58.877Z,97.60
2023-05-04T19:08:27.317Z,99.40
2023-05-04T19:10:59.264Z,99.20
2023-05-04T19:13:28.981Z,99.90
2023-05-04T19:15:57.316Z,99.90
2023-05-04T19:18:25.649Z,99.90
2023-05-04T19:20:54.654Z,99.90
2023-05-04T19:23:23.024Z,99.90
2023-05-04T19:25:51.316Z,99.90
2023-05-04T19:28:19.733Z,99.90
2023-05-04T19:30:49.538Z,99.90
2023-05-04T19:33:17.943Z,99.90
2023-05-04T19:35:46.468Z,99.90
2023-05-04T19:38:14.796Z,99.90
2023-05-04T19:40:43.189Z,99.90
2023-05-04T19:43:11.506Z,99.90
2023-05-04T19:45:40.028Z,99.90
2023-05-04T19:48:10.082Z,99.90
2023-05-04T19:50:38.653Z,99.90
2023-05-04T19:53:06.868Z,99.90
2023-05-04T19:55:36.176Z,99.90
2023-05-04T19:58:05.157Z,99.90
2023-05-04T20:00:36.179Z,99.90
2023-05-04T20:03:04.671Z,99.90
2023-05-04T20:05:34.416Z,99.90
2023-05-04T20:08:04.938Z,99.90
2023-05-04T20:10:33.567Z,99.90
2023-05-04T20:13:02.061Z,99.90
2023-05-04T20:15:30.470Z,99.90
2023-05-04T20:17:59.023Z,99.90
2023-05-04T20:20:27.753Z,99.90
2023-05-04T20:22:58.286Z,99.90
2023-05-04T20:25:27.486Z,99.90
2023-05-04T20:27:58.660Z,99.90
2023-05-04T20:30:28.191Z,99.90
2023-05-04T20:32:57.061Z,99.90
2023-05-04T20:35:25.442Z,99.90
2023-05-04T20:37:53.608Z,99.90
2023-05-04T20:40:23.260Z,99.90
2023-05-04T20:42:51.510Z,99.90
2023-05-04T20:45:19.727Z,99.90
2023-05-04T20:47:48.470Z,99.90
2023-05-04T20:50:17.954Z,99.90
2023-05-04T20:52:46.212Z,99.90
2023-05-04T20:55:15.246Z,99.90
2023-05-04T20:57:45.150Z,99.90
2023-05-04T21:00:15.289Z,99.90
2023-05-04T21:02:44.085Z,99.90
2023-05-04T21:05:12.698Z,99.90
2023-05-04T21:07:41.160Z,99.90
2023-05-04T21:10:10.561Z,99.90
2023-05-04T21:12:39.051Z,99.90
2023-05-04T21:15:10.278Z,99.90
2023-05-04T21:17:38.623Z,99.90
2023-05-04T21:20:09.525Z,99.90
2023-05-04T21:22:38.122Z,99.90
2023-05-04T21:25:07.113Z,99.90
2023-05-04T21:27:36.125Z,99.90
2023-05-04T21:30:05.736Z,99.90
2023-05-04T21:32:36.405Z,99.90
2023-05-04T21:35:05.074Z,99.90
2023-05-04T21:37:33.453Z,99.90
2023-05-04T21:40:03.315Z,99.90
2023-05-04T21:42:32.837Z,99.90
2023-05-04T21:45:01.047Z,99.90
2023-05-04T21:47:29.573Z,99.90
2023-05-04T21:50:00.887Z,99.90
2023-05-04T21:52:29.185Z,99.90
2023-05-04T21:54:57.499Z,99.90
2023-05-04T21:57:26.135Z,99.90
2023-05-04T21:59:54.332Z,99.90
2023-05-04T22:02:22.593Z,99.90
2023-05-04T22:04:51.158Z,99.90
2023-05-04T22:07:20.864Z,99.90
2023-05-04T22:09:49.219Z,99.90
2023-05-04T22:12:17.534Z,99.90
2023-05-04T22:14:46.025Z,99.90
2023-05-04T22:17:14.475Z,99.90
2023-05-04T22:19:42.912Z,99.90
2023-05-04T22:22:11.213Z,99.90
2023-05-04T22:24:41.182Z,99.90
2023-05-04T22:27:09.529Z,99.90
2023-05-04T22:29:37.847Z,99.90
2023-05-04T22:32:07.808Z,99.90
2023-05-04T22:34:36.177Z,99.90
2023-05-04T22:37:04.476Z,99.90
2023-05-04T22:39:32.740Z,99.90
2023-05-04T22:42:03.016Z,99.90
2023-05-04T22:44:31.283Z,99.90
2023-05-04T22:46:59.462Z,99.90
2023-05-04T22:49:27.682Z,99.90
2023-05-04T22:51:55.849Z,99.90
2023-05-04T22:54:24.022Z,99.90
2023-05-04T22:56:52.217Z,99.90
2023-05-04T22:59:22.212Z,99.90
2023-05-04T23:01:50.480Z,99.90
2023-05-04T23:04:18.858Z,99.90
2023-05-04T23:06:47.320Z,99.90
2023-05-04T23:09:15.998Z,99.90
2023-05-04T23:11:44.498Z,99.90
2023-05-04T23:14:13.722Z,99.90
2023-05-04T23:16:43.624Z,99.90
2023-05-04T23:19:12.003Z,99.90
2023-05-04T23:21:40.462Z,99.90
2023-05-04T23:24:08.963Z,99.90
2023-05-04T23:26:37.469Z,99.90
2023-05-04T23:29:05.793Z,99.90
2023-05-04T23:31:34.091Z,99.90
2023-05-04T23:34:04.175Z,99.90
2023-05-04T23:36:32.535Z,99.90
2023-05-04T23:39:00.918Z,99.90
2023-05-04T23:41:29.213Z,99.90
2023-05-04T23:44:00.003Z,99.90
2023-05-04T23:46:28.426Z,99.90
2023-05-04T23:48:56.804Z,99.90
2023-05-04T23:51:28.578Z,99.90
2023-05-04T23:53:56.914Z,99.90
2023-05-04T23:56:25.204Z,99.90
2023-05-04T23:58:54.001Z,99.90
